sensor_id;sensor_type;location;lat;lon;timestamp;P1;durP1;ratioP1;P2;durP2;ratioP2
71503;SDS011;59323;50.874;7.028;2024-03-23T00:53:35;18.37;;;6.63;;
71503;SDS011;59323;50.874;7.028;2024-03-23T00:56:00;17.47;;;6.23;;
71503;SDS011;59323;50.874;7.028;2024-03-23T00:58:26;18.13;;;5.73;;
71503;SDS011;59323;50.874;7.028;2024-03-23T01:00:51;20.60;;;5.97;;
71503;SDS011;59323;50.874;7.028;2024-03-23T01:03:16;17.70;;;5.90;;
71503;SDS011;59323;50.874;7.028;2024-03-23T01:05:44;22.20;;;6.18;;
71503;SDS011;59323;50.874;7.028;2024-03-23T01:08:12;19.93;;;5.63;;
71503;SDS011;59323;50.874;7.028;2024-03-23T01:10:37;22.55;;;5.78;;
71503;SDS011;59323;50.874;7.028;2024-03-23T01:13:03;17.63;;;5.47;;
71503;SDS011;59323;50.874;7.028;2024-03-23T01:15:28;19.27;;;5.93;;
71503;SDS011;59323;50.874;7.028;2024-03-23T01:17:53;19.50;;;5.73;;
71503;SDS011;59323;50.874;7.028;2024-03-23T01:20:19;23.43;;;5.30;;
71503;SDS011;59323;50.874;7.028;2024-03-23T01:22:44;21.13;;;5.63;;
71503;SDS011;59323;50.874;7.028;2024-03-23T01:25:12;17.77;;;5.20;;
71503;SDS011;59323;50.874;7.028;2024-03-23T01:27:38;16.57;;;5.30;;
71503;SDS011;59323;50.874;7.028;2024-03-23T01:30:03;19.17;;;5.50;;
71503;SDS011;59323;50.874;7.028;2024-03-23T01:32:29;15.50;;;5.32;;
71503;SDS011;59323;50.874;7.028;2024-03-23T01:34:54;17.77;;;5.47;;
71503;SDS011;59323;50.874;7.028;2024-03-23T01:37:19;17.53;;;5.00;;
71503;SDS011;59323;50.874;7.028;2024-03-23T01:39:45;16.80;;;4.40;;
71503;SDS011;59323;50.874;7.028;2024-03-23T01:42:10;12.43;;;2.80;;
71503;SDS011;59323;50.874;7.028;2024-03-23T01:44:37;14.90;;;1.80;;
71503;SDS011;59323;50.874;7.028;2024-03-23T01:47:03;7.60;;;1.77;;
71503;SDS011;59323;50.874;7.028;2024-03-23T01:49:28;6.47;;;1.08;;
71503;SDS011;59323;50.874;7.028;2024-03-23T01:51:53;4.33;;;0.90;;
71503;SDS011;59323;50.874;7.028;2024-03-23T01:54:19;5.63;;;1.30;;
71503;SDS011;59323;50.874;7.028;2024-03-23T01:56:44;6.10;;;1.37;;
71503;SDS011;59323;50.874;7.028;2024-03-23T01:59:10;6.15;;;1.80;;
71503;SDS011;59323;50.874;7.028;2024-03-23T02:01:35;8.90;;;1.40;;
71503;SDS011;59323;50.874;7.028;2024-03-23T02:04:03;9.43;;;1.80;;
71503;SDS011;59323;50.874;7.028;2024-03-23T02:06:32;5.72;;;1.60;;
71503;SDS011;59323;50.874;7.028;2024-03-23T02:08:58;8.63;;;1.92;;
71503;SDS011;59323;50.874;7.028;2024-03-23T02:11:24;7.20;;;2.17;;
71503;SDS011;59323;50.874;7.028;2024-03-23T02:13:49;7.50;;;2.13;;
71503;SDS011;59323;50.874;7.028;2024-03-23T02:16:15;6.07;;;1.90;;
71503;SDS011;59323;50.874;7.028;2024-03-23T02:18:40;9.47;;;2.27;;
71503;SDS011;59323;50.874;7.028;2024-03-23T02:21:08;8.85;;;2.13;;
71503;SDS011;59323;50.874;7.028;2024-03-23T02:23:33;8.33;;;2.03;;
71503;SDS011;59323;50.874;7.028;2024-03-23T02:25:58;8.50;;;2.30;;
71503;SDS011;59323;50.874;7.028;2024-03-23T02:28:24;7.23;;;2.03;;
71503;SDS011;59323;50.874;7.028;2024-03-23T02:30:49;10.23;;;2.37;;
71503;SDS011;59323;50.874;7.028;2024-03-23T02:33:15;8.52;;;1.73;;
71503;SDS011;59323;50.874;7.028;2024-03-23T02:35:41;8.77;;;2.07;;
71503;SDS011;59323;50.874;7.028;2024-03-23T02:38:06;7.78;;;1.70;;
71503;SDS011;59323;50.874;7.028;2024-03-23T02:40:32;6.47;;;1.60;;
71503;SDS011;59323;50.874;7.028;2024-03-23T02:42:57;8.57;;;1.60;;
71503;SDS011;59323;50.874;7.028;2024-03-23T02:45:24;10.40;;;2.28;;
71503;SDS011;59323;50.874;7.028;2024-03-23T02:47:50;5.93;;;1.53;;
71503;SDS011;59323;50.874;7.028;2024-03-23T02:50:17;8.32;;;1.95;;
71503;SDS011;59323;50.874;7.028;2024-03-23T02:52:43;10.88;;;1.90;;
71503;SDS011;59323;50.874;7.028;2024-03-23T02:55:09;8.93;;;2.20;;
71503;SDS011;59323;50.874;7.028;2024-03-23T02:57:34;7.90;;;2.20;;
71503;SDS011;59323;50.874;7.028;2024-03-23T03:00:00;10.00;;;1.85;;
71503;SDS011;59323;50.874;7.028;2024-03-23T03:02:25;8.33;;;2.00;;
71503;SDS011;59323;50.874;7.028;2024-03-23T03:04:53;7.50;;;1.97;;
71503;SDS011;59323;50.874;7.028;2024-03-23T03:07:21;7.43;;;1.88;;
71503;SDS011;59323;50.874;7.028;2024-03-23T03:09:48;7.13;;;1.65;;
71503;SDS011;59323;50.874;7.028;2024-03-23T03:12:16;9.47;;;1.97;;
71503;SDS011;59323;50.874;7.028;2024-03-23T03:14:41;6.17;;;1.53;;
71503;SDS011;59323;50.874;7.028;2024-03-23T03:17:07;11.40;;;2.03;;
71503;SDS011;59323;50.874;7.028;2024-03-23T03:19:32;6.83;;;1.63;;
71503;SDS011;59323;50.874;7.028;2024-03-23T03:22:02;7.05;;;1.50;;
71503;SDS011;59323;50.874;7.028;2024-03-23T03:24:29;5.93;;;1.33;;
71503;SDS011;59323;50.874;7.028;2024-03-23T03:26:58;6.50;;;1.17;;
71503;SDS011;59323;50.874;7.028;2024-03-23T03:29:26;9.00;;;1.70;;
71503;SDS011;59323;50.874;7.028;2024-03-23T03:31:51;8.27;;;1.27;;
71503;SDS011;59323;50.874;7.028;2024-03-23T03:34:16;10.50;;;1.50;;
71503;SDS011;59323;50.874;7.028;2024-03-23T03:36:44;11.52;;;1.80;;
71503;SDS011;59323;50.874;7.028;2024-03-23T03:39:09;8.70;;;1.73;;
71503;SDS011;59323;50.874;7.028;2024-03-23T03:41:35;10.00;;;1.60;;
71503;SDS011;59323;50.874;7.028;2024-03-23T03:44:02;8.07;;;1.33;;
71503;SDS011;59323;50.874;7.028;2024-03-23T03:46:28;11.30;;;1.50;;
71503;SDS011;59323;50.874;7.028;2024-03-23T03:48:54;11.77;;;1.40;;
71503;SDS011;59323;50.874;7.028;2024-03-23T03:51:22;8.93;;;1.23;;
71503;SDS011;59323;50.874;7.028;2024-03-23T03:53:47;9.30;;;1.58;;
71503;SDS011;59323;50.874;7.028;2024-03-23T03:56:12;11.87;;;1.70;;
71503;SDS011;59323;50.874;7.028;2024-03-23T03:58:38;10.40;;;1.30;;
71503;SDS011;59323;50.874;7.028;2024-03-23T04:01:06;9.38;;;1.75;;
71503;SDS011;59323;50.874;7.028;2024-03-23T04:03:33;8.50;;;1.50;;
71503;SDS011;59323;50.874;7.028;2024-03-23T04:05:59;9.30;;;1.60;;
71503;SDS011;59323;50.874;7.028;2024-03-23T04:08:24;8.03;;;1.57;;
71503;SDS011;59323;50.874;7.028;2024-03-23T04:10:50;10.67;;;1.53;;
71503;SDS011;59323;50.874;7.028;2024-03-23T04:13:17;7.23;;;1.50;;
71503;SDS011;59323;50.874;7.028;2024-03-23T04:15:43;13.23;;;1.70;;
71503;SDS011;59323;50.874;7.028;2024-03-23T04:18:08;10.57;;;1.33;;
71503;SDS011;59323;50.874;7.028;2024-03-23T04:20:33;9.07;;;2.40;;
71503;SDS011;59323;50.874;7.028;2024-03-23T04:22:59;8.43;;;1.50;;
71503;SDS011;59323;50.874;7.028;2024-03-23T04:25:27;8.38;;;1.40;;
71503;SDS011;59323;50.874;7.028;2024-03-23T04:27:52;6.50;;;1.27;;
71503;SDS011;59323;50.874;7.028;2024-03-23T04:30:18;9.20;;;1.63;;
71503;SDS011;59323;50.874;7.028;2024-03-23T04:32:44;9.50;;;1.80;;
71503;SDS011;59323;50.874;7.028;2024-03-23T04:35:09;6.93;;;1.23;;
71503;SDS011;59323;50.874;7.028;2024-03-23T04:37:35;8.83;;;0.90;;
71503;SDS011;59323;50.874;7.028;2024-03-23T04:40:02;5.75;;;0.93;;
71503;SDS011;59323;50.874;7.028;2024-03-23T04:42:31;9.13;;;1.27;;
71503;SDS011;59323;50.874;7.028;2024-03-23T04:44:57;5.75;;;1.00;;
71503;SDS011;59323;50.874;7.028;2024-03-23T04:47:24;8.43;;;1.13;;
71503;SDS011;59323;50.874;7.028;2024-03-23T04:49:49;6.67;;;1.13;;
71503;SDS011;59323;50.874;7.028;2024-03-23T04:52:15;5.22;;;1.05;;
71503;SDS011;59323;50.874;7.028;2024-03-23T04:54:41;10.93;;;1.20;;
71503;SDS011;59323;50.874;7.028;2024-03-23T04:57:10;6.28;;;0.77;;
71503;SDS011;59323;50.874;7.028;2024-03-23T05:11:12;8.55;;;1.20;;
71503;SDS011;59323;50.874;7.028;2024-03-23T05:21:47;12.23;;;1.45;;
71503;SDS011;59323;50.874;7.028;2024-03-23T05:27:20;10.65;;;1.50;;
71503;SDS011;59323;50.874;7.028;2024-03-23T05:29:45;10.57;;;2.10;;
71503;SDS011;59323;50.874;7.028;2024-03-23T05:32:10;7.05;;;1.60;;
71503;SDS011;59323;50.874;7.028;2024-03-23T05:34:36;10.40;;;2.10;;
71503;SDS011;59323;50.874;7.028;2024-03-23T05:37:01;11.43;;;1.87;;
71503;SDS011;59323;50.874;7.028;2024-03-23T05:39:26;10.80;;;1.50;;
71503;SDS011;59323;50.874;7.028;2024-03-23T05:41:52;9.60;;;1.60;;
71503;SDS011;59323;50.874;7.028;2024-03-23T05:44:17;8.20;;;1.30;;
71503;SDS011;59323;50.874;7.028;2024-03-23T05:46:43;7.03;;;1.30;;
71503;SDS011;59323;50.874;7.028;2024-03-23T05:49:13;9.10;;;1.23;;
71503;SDS011;59323;50.874;7.028;2024-03-23T05:51:39;8.75;;;1.23;;
71503;SDS011;59323;50.874;7.028;2024-03-23T05:54:04;11.73;;;1.00;;
71503;SDS011;59323;50.874;7.028;2024-03-23T05:56:30;6.90;;;1.30;;
71503;SDS011;59323;50.874;7.028;2024-03-23T05:58:56;8.93;;;1.17;;
71503;SDS011;59323;50.874;7.028;2024-03-23T06:01:21;9.77;;;1.50;;
71503;SDS011;59323;50.874;7.028;2024-03-23T06:03:47;10.55;;;1.52;;
71503;SDS011;59323;50.874;7.028;2024-03-23T06:06:12;10.13;;;1.70;;
71503;SDS011;59323;50.874;7.028;2024-03-23T06:08:38;11.63;;;1.77;;
71503;SDS011;59323;50.874;7.028;2024-03-23T06:11:04;8.35;;;1.38;;
71503;SDS011;59323;50.874;7.028;2024-03-23T06:13:31;7.90;;;1.40;;
71503;SDS011;59323;50.874;7.028;2024-03-23T06:15:56;8.13;;;1.73;;
71503;SDS011;59323;50.874;7.028;2024-03-23T06:18:22;11.30;;;1.90;;
71503;SDS011;59323;50.874;7.028;2024-03-23T06:20:47;9.77;;;1.50;;
71503;SDS011;59323;50.874;7.028;2024-03-23T06:23:12;12.73;;;1.80;;
71503;SDS011;59323;50.874;7.028;2024-03-23T06:25:39;10.73;;;2.20;;
71503;SDS011;59323;50.874;7.028;2024-03-23T06:28:05;8.00;;;1.47;;
71503;SDS011;59323;50.874;7.028;2024-03-23T06:30:30;8.37;;;1.67;;
71503;SDS011;59323;50.874;7.028;2024-03-23T06:32:57;14.13;;;2.63;;
71503;SDS011;59323;50.874;7.028;2024-03-23T06:35:22;14.43;;;2.00;;
71503;SDS011;59323;50.874;7.028;2024-03-23T06:37:48;13.35;;;1.75;;
71503;SDS011;59323;50.874;7.028;2024-03-23T06:40:13;14.23;;;1.83;;
71503;SDS011;59323;50.874;7.028;2024-03-23T06:42:38;6.80;;;1.83;;
71503;SDS011;59323;50.874;7.028;2024-03-23T06:45:04;13.53;;;2.13;;
71503;SDS011;59323;50.874;7.028;2024-03-23T06:47:31;10.15;;;2.67;;
71503;SDS011;59323;50.874;7.028;2024-03-23T06:49:56;14.23;;;1.90;;
71503;SDS011;59323;50.874;7.028;2024-03-23T06:52:21;8.37;;;1.87;;
71503;SDS011;59323;50.874;7.028;2024-03-23T06:54:46;10.02;;;1.80;;
71503;SDS011;59323;50.874;7.028;2024-03-23T06:57:12;10.93;;;1.70;;
71503;SDS011;59323;50.874;7.028;2024-03-23T06:59:37;16.33;;;1.80;;
71503;SDS011;59323;50.874;7.028;2024-03-23T07:02:04;12.40;;;1.48;;
71503;SDS011;59323;50.874;7.028;2024-03-23T07:04:30;11.27;;;1.80;;
71503;SDS011;59323;50.874;7.028;2024-03-23T07:06:55;10.77;;;2.30;;
71503;SDS011;59323;50.874;7.028;2024-03-23T07:09:20;12.20;;;1.63;;
71503;SDS011;59323;50.874;7.028;2024-03-23T07:11:51;13.27;;;1.90;;
71503;SDS011;59323;50.874;7.028;2024-03-23T07:14:16;12.70;;;2.23;;
71503;SDS011;59323;50.874;7.028;2024-03-23T07:16:41;12.93;;;2.03;;
71503;SDS011;59323;50.874;7.028;2024-03-23T07:19:07;9.33;;;2.00;;
71503;SDS011;59323;50.874;7.028;2024-03-23T07:21:32;13.17;;;2.40;;
71503;SDS011;59323;50.874;7.028;2024-03-23T07:23:57;13.02;;;2.47;;
71503;SDS011;59323;50.874;7.028;2024-03-23T07:26:23;10.17;;;2.10;;
71503;SDS011;59323;50.874;7.028;2024-03-23T07:28:48;13.47;;;2.47;;
71503;SDS011;59323;50.874;7.028;2024-03-23T07:31:14;15.13;;;2.67;;
71503;SDS011;59323;50.874;7.028;2024-03-23T07:33:44;9.90;;;2.60;;
71503;SDS011;59323;50.874;7.028;2024-03-23T07:36:10;18.70;;;4.72;;
71503;SDS011;59323;50.874;7.028;2024-03-23T07:38:36;14.93;;;3.23;;
71503;SDS011;59323;50.874;7.028;2024-03-23T07:41:05;12.40;;;3.28;;
71503;SDS011;59323;50.874;7.028;2024-03-23T07:43:31;11.40;;;3.15;;
71503;SDS011;59323;50.874;7.028;2024-03-23T07:45:56;10.17;;;2.90;;
71503;SDS011;59323;50.874;7.028;2024-03-23T07:48:22;13.07;;;4.07;;
71503;SDS011;59323;50.874;7.028;2024-03-23T07:50:59;15.90;;;3.90;;
71503;SDS011;59323;50.874;7.028;2024-03-23T07:53:35;18.67;;;4.45;;
71503;SDS011;59323;50.874;7.028;2024-03-23T07:56:07;13.33;;;4.50;;
71503;SDS011;59323;50.874;7.028;2024-03-23T07:58:35;13.85;;;4.35;;
71503;SDS011;59323;50.874;7.028;2024-03-23T08:01:08;13.45;;;4.15;;
71503;SDS011;59323;50.874;7.028;2024-03-23T08:03:38;12.48;;;4.15;;
71503;SDS011;59323;50.874;7.028;2024-03-23T08:06:11;12.70;;;3.88;;
71503;SDS011;59323;50.874;7.028;2024-03-23T08:08:37;14.97;;;3.80;;
71503;SDS011;59323;50.874;7.028;2024-03-23T08:11:03;10.57;;;3.85;;
71503;SDS011;59323;50.874;7.028;2024-03-23T08:13:29;16.52;;;4.30;;
71503;SDS011;59323;50.874;7.028;2024-03-23T08:15:58;10.38;;;3.90;;
71503;SDS011;59323;50.874;7.028;2024-03-23T08:54:31;12.70;;;2.83;;
71503;SDS011;59323;50.874;7.028;2024-03-23T09:08:17;10.10;;;3.20;;
71503;SDS011;59323;50.874;7.028;2024-03-23T09:11:21;12.55;;;3.08;;
71503;SDS011;59323;50.874;7.028;2024-03-23T09:14:06;12.07;;;3.30;;
71503;SDS011;59323;50.874;7.028;2024-03-23T09:16:33;11.47;;;3.93;;
71503;SDS011;59323;50.874;7.028;2024-03-23T09:19:29;16.15;;;3.95;;
71503;SDS011;59323;50.874;7.028;2024-03-23T09:21:55;12.45;;;3.45;;
71503;SDS011;59323;50.874;7.028;2024-03-23T09:24:24;13.93;;;3.55;;
71503;SDS011;59323;50.874;7.028;2024-03-23T09:26:51;10.53;;;3.43;;
71503;SDS011;59323;50.874;7.028;2024-03-23T09:29:17;11.77;;;3.75;;
71503;SDS011;59323;50.874;7.028;2024-03-23T09:31:42;16.77;;;4.30;;
71503;SDS011;59323;50.874;7.028;2024-03-23T09:34:08;18.47;;;3.50;;
71503;SDS011;59323;50.874;7.028;2024-03-23T09:36:33;11.45;;;2.63;;
71503;SDS011;59323;50.874;7.028;2024-03-23T09:38:58;8.67;;;2.20;;
71503;SDS011;59323;50.874;7.028;2024-03-23T09:41:24;10.20;;;2.20;;
71503;SDS011;59323;50.874;7.028;2024-03-23T09:43:52;10.47;;;2.40;;
71503;SDS011;59323;50.874;7.028;2024-03-23T09:46:18;13.27;;;2.80;;
71503;SDS011;59323;50.874;7.028;2024-03-23T09:48:44;10.15;;;2.40;;
71503;SDS011;59323;50.874;7.028;2024-03-23T09:51:11;12.07;;;1.85;;
71503;SDS011;59323;50.874;7.028;2024-03-23T09:53:37;10.47;;;1.80;;
71503;SDS011;59323;50.874;7.028;2024-03-23T09:56:02;13.93;;;2.00;;
71503;SDS011;59323;50.874;7.028;2024-03-23T09:58:30;12.77;;;2.80;;
71503;SDS011;59323;50.874;7.028;2024-03-23T10:00:57;8.85;;;2.08;;
71503;SDS011;59323;50.874;7.028;2024-03-23T10:03:22;14.53;;;1.80;;
71503;SDS011;59323;50.874;7.028;2024-03-23T10:05:48;11.38;;;1.65;;
71503;SDS011;59323;50.874;7.028;2024-03-23T10:08:25;8.10;;;2.10;;
71503;SDS011;59323;50.874;7.028;2024-03-23T10:10:51;9.18;;;1.90;;
71503;SDS011;59323;50.874;7.028;2024-03-23T10:13:26;11.93;;;1.90;;
71503;SDS011;59323;50.874;7.028;2024-03-23T10:15:55;9.32;;;1.52;;
71503;SDS011;59323;50.874;7.028;2024-03-23T10:18:22;8.43;;;1.17;;
71503;SDS011;59323;50.874;7.028;2024-03-23T10:21:05;5.45;;;1.10;;
71503;SDS011;59323;50.874;7.028;2024-03-23T10:23:37;8.85;;;1.20;;
71503;SDS011;59323;50.874;7.028;2024-03-23T10:26:16;6.90;;;1.48;;
71503;SDS011;59323;50.874;7.028;2024-03-23T10:31:33;7.00;;;1.53;;
71503;SDS011;59323;50.874;7.028;2024-03-23T10:34:00;11.13;;;1.25;;
71503;SDS011;59323;50.874;7.028;2024-03-23T10:36:26;7.25;;;1.30;;
71503;SDS011;59323;50.874;7.028;2024-03-23T10:38:54;9.57;;;1.60;;
71503;SDS011;59323;50.874;7.028;2024-03-23T10:41:20;12.25;;;2.33;;
71503;SDS011;59323;50.874;7.028;2024-03-23T10:43:48;8.33;;;1.40;;
71503;SDS011;59323;50.874;7.028;2024-03-23T10:46:14;5.10;;;1.23;;
71503;SDS011;59323;50.874;7.028;2024-03-23T10:48:39;6.38;;;1.20;;
71503;SDS011;59323;50.874;7.028;2024-03-23T10:51:08;8.38;;;1.58;;
71503;SDS011;59323;50.874;7.028;2024-03-23T10:53:34;7.20;;;1.30;;
71503;SDS011;59323;50.874;7.028;2024-03-23T10:56:02;4.75;;;0.95;;
71503;SDS011;59323;50.874;7.028;2024-03-23T11:01:03;5.93;;;1.38;;
71503;SDS011;59323;50.874;7.028;2024-03-23T11:03:29;5.10;;;1.07;;
71503;SDS011;59323;50.874;7.028;2024-03-23T11:06:01;6.32;;;1.25;;
71503;SDS011;59323;50.874;7.028;2024-03-23T11:11:19;6.05;;;0.82;;
71503;SDS011;59323;50.874;7.028;2024-03-23T11:13:49;6.25;;;0.90;;
71503;SDS011;59323;50.874;7.028;2024-03-23T11:16:26;5.27;;;0.90;;
71503;SDS011;59323;50.874;7.028;2024-03-23T11:22:02;5.22;;;0.80;;
71503;SDS011;59323;50.874;7.028;2024-03-23T11:24:31;3.28;;;0.85;;
71503;SDS011;59323;50.874;7.028;2024-03-23T11:27:00;8.65;;;1.30;;
71503;SDS011;59323;50.874;7.028;2024-03-23T11:29:29;6.27;;;0.87;;
71503;SDS011;59323;50.874;7.028;2024-03-23T11:31:55;4.93;;;1.52;;
71503;SDS011;59323;50.874;7.028;2024-03-23T11:34:21;4.85;;;1.17;;
71503;SDS011;59323;50.874;7.028;2024-03-23T11:36:49;8.70;;;1.45;;
71503;SDS011;59323;50.874;7.028;2024-03-23T11:39:18;5.88;;;1.20;;
71503;SDS011;59323;50.874;7.028;2024-03-23T11:41:48;8.53;;;1.30;;
71503;SDS011;59323;50.874;7.028;2024-03-23T11:44:18;7.72;;;1.33;;
71503;SDS011;59323;50.874;7.028;2024-03-23T11:46:44;5.63;;;1.35;;
71503;SDS011;59323;50.874;7.028;2024-03-23T11:49:19;7.97;;;1.50;;
71503;SDS011;59323;50.874;7.028;2024-03-23T11:51:54;8.38;;;2.17;;
71503;SDS011;59323;50.874;7.028;2024-03-23T11:54:37;6.20;;;1.10;;
71503;SDS011;59323;50.874;7.028;2024-03-23T11:57:03;6.38;;;1.02;;
71503;SDS011;59323;50.874;7.028;2024-03-23T11:59:33;7.88;;;1.30;;
71503;SDS011;59323;50.874;7.028;2024-03-23T12:04:35;4.63;;;1.30;;
71503;SDS011;59323;50.874;7.028;2024-03-23T12:07:35;5.83;;;1.03;;
71503;SDS011;59323;50.874;7.028;2024-03-23T12:10:03;8.85;;;1.00;;
71503;SDS011;59323;50.874;7.028;2024-03-23T12:12:31;6.45;;;0.90;;
71503;SDS011;59323;50.874;7.028;2024-03-23T12:15:09;4.23;;;0.70;;
71503;SDS011;59323;50.874;7.028;2024-03-23T12:17:39;5.10;;;0.75;;
71503;SDS011;59323;50.874;7.028;2024-03-23T12:20:10;3.10;;;0.80;;
71503;SDS011;59323;50.874;7.028;2024-03-23T12:22:37;2.10;;;0.60;;
71503;SDS011;59323;50.874;7.028;2024-03-23T12:25:03;4.55;;;1.00;;
71503;SDS011;59323;50.874;7.028;2024-03-23T12:27:31;6.93;;;0.67;;
71503;SDS011;59323;50.874;7.028;2024-03-23T12:29:56;5.85;;;1.00;;
71503;SDS011;59323;50.874;7.028;2024-03-23T12:32:21;6.43;;;1.00;;
71503;SDS011;59323;50.874;7.028;2024-03-23T12:34:49;6.68;;;1.27;;
71503;SDS011;59323;50.874;7.028;2024-03-23T12:37:14;2.70;;;0.70;;
71503;SDS011;59323;50.874;7.028;2024-03-23T12:39:42;3.17;;;0.63;;
71503;SDS011;59323;50.874;7.028;2024-03-23T12:42:07;5.80;;;0.97;;
71503;SDS011;59323;50.874;7.028;2024-03-23T12:44:33;1.60;;;0.60;;
71503;SDS011;59323;50.874;7.028;2024-03-23T12:46:58;1.40;;;0.40;;
71503;SDS011;59323;50.874;7.028;2024-03-23T12:49:23;2.67;;;0.50;;
71503;SDS011;59323;50.874;7.028;2024-03-23T12:51:55;3.00;;;1.00;;
71503;SDS011;59323;50.874;7.028;2024-03-23T12:54:22;1.67;;;0.57;;
71503;SDS011;59323;50.874;7.028;2024-03-23T12:56:50;4.50;;;1.20;;
71503;SDS011;59323;50.874;7.028;2024-03-23T12:59:23;4.20;;;0.68;;
71503;SDS011;59323;50.874;7.028;2024-03-23T13:01:54;1.17;;;0.50;;
71503;SDS011;59323;50.874;7.028;2024-03-23T13:04:20;1.90;;;0.50;;
71503;SDS011;59323;50.874;7.028;2024-03-23T13:06:48;1.15;;;0.50;;
71503;SDS011;59323;50.874;7.028;2024-03-23T13:09:13;1.27;;;0.40;;
71503;SDS011;59323;50.874;7.028;2024-03-23T13:11:39;3.60;;;0.50;;
71503;SDS011;59323;50.874;7.028;2024-03-23T13:14:04;2.60;;;0.55;;
71503;SDS011;59323;50.874;7.028;2024-03-23T13:16:32;1.70;;;0.40;;
71503;SDS011;59323;50.874;7.028;2024-03-23T13:18:58;5.03;;;0.47;;
71503;SDS011;59323;50.874;7.028;2024-03-23T13:21:23;2.53;;;0.60;;
71503;SDS011;59323;50.874;7.028;2024-03-23T13:23:51;2.42;;;0.82;;
71503;SDS011;59323;50.874;7.028;2024-03-23T13:26:16;1.97;;;0.43;;
71503;SDS011;59323;50.874;7.028;2024-03-23T13:28:41;2.83;;;0.50;;
71503;SDS011;59323;50.874;7.028;2024-03-23T13:31:07;1.77;;;0.45;;
71503;SDS011;59323;50.874;7.028;2024-03-23T13:33:42;3.30;;;0.60;;
71503;SDS011;59323;50.874;7.028;2024-03-23T13:36:09;4.85;;;0.80;;
71503;SDS011;59323;50.874;7.028;2024-03-23T13:38:36;5.55;;;1.00;;
71503;SDS011;59323;50.874;7.028;2024-03-23T13:41:02;3.50;;;0.80;;
71503;SDS011;59323;50.874;7.028;2024-03-23T13:43:32;4.07;;;1.08;;
71503;SDS011;59323;50.874;7.028;2024-03-23T13:45:57;4.28;;;1.02;;
71503;SDS011;59323;50.874;7.028;2024-03-23T13:48:24;5.47;;;1.20;;
71503;SDS011;59323;50.874;7.028;2024-03-23T13:51:01;5.53;;;1.20;;
71503;SDS011;59323;50.874;7.028;2024-03-23T13:53:30;5.28;;;1.25;;
71503;SDS011;59323;50.874;7.028;2024-03-23T13:55:56;4.60;;;0.90;;
71503;SDS011;59323;50.874;7.028;2024-03-23T13:58:21;5.97;;;1.40;;
71503;SDS011;59323;50.874;7.028;2024-03-23T14:00:47;10.53;;;2.10;;
71503;SDS011;59323;50.874;7.028;2024-03-23T14:03:12;11.00;;;1.40;;
71503;SDS011;59323;50.874;7.028;2024-03-23T14:05:39;7.20;;;1.30;;
71503;SDS011;59323;50.874;7.028;2024-03-23T14:08:08;4.15;;;0.88;;
71503;SDS011;59323;50.874;7.028;2024-03-23T14:10:35;4.85;;;1.00;;
71503;SDS011;59323;50.874;7.028;2024-03-23T14:13:01;5.40;;;1.10;;
71503;SDS011;59323;50.874;7.028;2024-03-23T14:15:29;6.10;;;1.08;;
71503;SDS011;59323;50.874;7.028;2024-03-23T14:17:55;2.37;;;0.70;;
71503;SDS011;59323;50.874;7.028;2024-03-23T14:20:22;2.30;;;0.80;;
71503;SDS011;59323;50.874;7.028;2024-03-23T14:22:48;2.58;;;0.55;;
71503;SDS011;59323;50.874;7.028;2024-03-23T14:25:14;3.07;;;0.50;;
71503;SDS011;59323;50.874;7.028;2024-03-23T14:27:43;4.13;;;0.60;;
71503;SDS011;59323;50.874;7.028;2024-03-23T14:30:11;2.45;;;0.50;;
71503;SDS011;59323;50.874;7.028;2024-03-23T14:32:40;2.37;;;0.50;;
71503;SDS011;59323;50.874;7.028;2024-03-23T14:35:05;2.92;;;0.70;;
71503;SDS011;59323;50.874;7.028;2024-03-23T14:37:38;2.65;;;0.55;;
71503;SDS011;59323;50.874;7.028;2024-03-23T14:40:07;3.92;;;0.50;;
71503;SDS011;59323;50.874;7.028;2024-03-23T14:42:32;1.27;;;0.40;;
71503;SDS011;59323;50.874;7.028;2024-03-23T14:44:58;2.87;;;0.67;;
71503;SDS011;59323;50.874;7.028;2024-03-23T14:47:23;1.70;;;0.50;;
71503;SDS011;59323;50.874;7.028;2024-03-23T14:49:49;2.37;;;0.57;;
71503;SDS011;59323;50.874;7.028;2024-03-23T14:52:18;2.83;;;0.55;;
71503;SDS011;59323;50.874;7.028;2024-03-23T14:54:49;5.65;;;1.08;;
71503;SDS011;59323;50.874;7.028;2024-03-23T14:57:14;7.47;;;0.83;;
71503;SDS011;59323;50.874;7.028;2024-03-23T14:59:39;6.67;;;1.00;;
71503;SDS011;59323;50.874;7.028;2024-03-23T15:02:06;3.97;;;0.80;;
71503;SDS011;59323;50.874;7.028;2024-03-23T15:04:31;6.07;;;1.20;;
71503;SDS011;59323;50.874;7.028;2024-03-23T15:06:57;6.03;;;1.10;;
71503;SDS011;59323;50.874;7.028;2024-03-23T15:09:22;2.13;;;0.63;;
71503;SDS011;59323;50.874;7.028;2024-03-23T15:11:48;2.03;;;0.50;;
71503;SDS011;59323;50.874;7.028;2024-03-23T15:14:15;3.90;;;0.60;;
71503;SDS011;59323;50.874;7.028;2024-03-23T15:16:44;4.00;;;0.68;;
71503;SDS011;59323;50.874;7.028;2024-03-23T15:19:12;2.55;;;0.57;;
71503;SDS011;59323;50.874;7.028;2024-03-23T15:21:40;3.80;;;0.60;;
71503;SDS011;59323;50.874;7.028;2024-03-23T15:24:05;4.20;;;0.70;;
71503;SDS011;59323;50.874;7.028;2024-03-23T15:26:31;4.27;;;0.70;;
71503;SDS011;59323;50.874;7.028;2024-03-23T15:28:57;2.67;;;0.65;;
71503;SDS011;59323;50.874;7.028;2024-03-23T15:31:23;4.23;;;0.53;;
71503;SDS011;59323;50.874;7.028;2024-03-23T15:33:49;3.55;;;0.80;;
71503;SDS011;59323;50.874;7.028;2024-03-23T15:36:14;2.10;;;0.50;;
71503;SDS011;59323;50.874;7.028;2024-03-23T15:38:39;5.70;;;0.80;;
71503;SDS011;59323;50.874;7.028;2024-03-23T15:41:05;3.63;;;0.88;;
71503;SDS011;59323;50.874;7.028;2024-03-23T15:43:31;1.37;;;0.47;;
71503;SDS011;59323;50.874;7.028;2024-03-23T15:45:57;6.50;;;0.98;;
71503;SDS011;59323;50.874;7.028;2024-03-23T15:48:24;3.58;;;0.77;;
71503;SDS011;59323;50.874;7.028;2024-03-23T15:50:53;4.53;;;1.00;;
71503;SDS011;59323;50.874;7.028;2024-03-23T15:53:20;6.67;;;1.20;;
71503;SDS011;59323;50.874;7.028;2024-03-23T15:55:55;6.88;;;1.20;;
71503;SDS011;59323;50.874;7.028;2024-03-23T15:58:24;5.40;;;1.67;;
71503;SDS011;59323;50.874;7.028;2024-03-23T16:01:00;6.30;;;1.30;;
71503;SDS011;59323;50.874;7.028;2024-03-23T16:03:29;11.32;;;1.50;;
71503;SDS011;59323;50.874;7.028;2024-03-23T16:05:57;6.00;;;1.30;;
71503;SDS011;59323;50.874;7.028;2024-03-23T16:08:23;6.03;;;1.40;;
71503;SDS011;59323;50.874;7.028;2024-03-23T16:10:50;5.85;;;1.67;;
71503;SDS011;59323;50.874;7.028;2024-03-23T16:13:15;6.80;;;1.40;;
71503;SDS011;59323;50.874;7.028;2024-03-23T16:15:43;5.67;;;1.40;;
71503;SDS011;59323;50.874;7.028;2024-03-23T16:18:08;5.85;;;1.80;;
71503;SDS011;59323;50.874;7.028;2024-03-23T16:20:34;5.57;;;1.50;;
71503;SDS011;59323;50.874;7.028;2024-03-23T16:22:59;4.97;;;1.30;;
71503;SDS011;59323;50.874;7.028;2024-03-23T16:25:28;5.20;;;1.35;;
71503;SDS011;59323;50.874;7.028;2024-03-23T16:27:54;4.87;;;1.00;;
71503;SDS011;59323;50.874;7.028;2024-03-23T16:30:19;5.05;;;0.88;;
71503;SDS011;59323;50.874;7.028;2024-03-23T16:32:48;4.50;;;0.97;;
71503;SDS011;59323;50.874;7.028;2024-03-23T16:35:14;3.13;;;1.00;;
71503;SDS011;59323;50.874;7.028;2024-03-23T16:37:40;3.40;;;0.90;;
71503;SDS011;59323;50.874;7.028;2024-03-23T16:40:06;2.40;;;0.95;;
71503;SDS011;59323;50.874;7.028;2024-03-23T16:42:34;3.43;;;1.03;;
71503;SDS011;59323;50.874;7.028;2024-03-23T16:44:59;3.15;;;0.88;;
71503;SDS011;59323;50.874;7.028;2024-03-23T16:47:25;3.77;;;0.67;;
71503;SDS011;59323;50.874;7.028;2024-03-23T16:49:52;4.20;;;0.82;;
71503;SDS011;59323;50.874;7.028;2024-03-23T16:52:18;3.60;;;0.80;;
71503;SDS011;59323;50.874;7.028;2024-03-23T16:54:45;3.15;;;0.80;;
71503;SDS011;59323;50.874;7.028;2024-03-23T16:57:10;1.80;;;0.70;;
71503;SDS011;59323;50.874;7.028;2024-03-23T16:59:35;2.57;;;0.60;;